sensor_id;sensor_type;location;lat;lon;timestamp;P1;durP1;ratioP1;P2;durP2;ratioP2
17753;SDS011;8999;48.994;9.150;2024-03-08T00:00:36;23.53;;;13.87;;
17753;SDS011;8999;48.994;9.150;2024-03-08T00:03:09;26.87;;;14.17;;
17753;SDS011;8999;48.994;9.150;2024-03-08T00:05:41;23.70;;;13.57;;
17753;SDS011;8999;48.994;9.150;2024-03-08T00:08:13;26.03;;;13.70;;
17753;SDS011;8999;48.994;9.150;2024-03-08T00:10:45;20.67;;;12.07;;
17753;SDS011;8999;48.994;9.150;2024-03-08T00:13:17;25.00;;;13.53;;
17753;SDS011;8999;48.994;9.150;2024-03-08T00:15:49;23.85;;;13.38;;
17753;SDS011;8999;48.994;9.150;2024-03-08T00:18:22;23.30;;;12.57;;
17753;SDS011;8999;48.994;9.150;2024-03-08T00:20:53;24.50;;;12.93;;
17753;SDS011;8999;48.994;9.150;2024-03-08T00:23:25;23.60;;;13.03;;
17753;SDS011;8999;48.994;9.150;2024-03-08T00:25:58;21.97;;;13.10;;
17753;SDS011;8999;48.994;9.150;2024-03-08T00:28:30;27.33;;;13.60;;
17753;SDS011;8999;48.994;9.150;2024-03-08T00:31:02;25.52;;;14.18;;
17753;SDS011;8999;48.994;9.150;2024-03-08T00:33:35;25.90;;;13.60;;
17753;SDS011;8999;48.994;9.150;2024-03-08T00:36:07;25.67;;;13.83;;
17753;SDS011;8999;48.994;9.150;2024-03-08T00:38:38;22.37;;;13.03;;
17753;SDS011;8999;48.994;9.150;2024-03-08T00:41:09;29.93;;;13.57;;
17753;SDS011;8999;48.994;9.150;2024-03-08T00:43:41;25.67;;;13.97;;
17753;SDS011;8999;48.994;9.150;2024-03-08T00:46:13;25.63;;;14.00;;
17753;SDS011;8999;48.994;9.150;2024-03-08T00:48:46;25.60;;;14.33;;
17753;SDS011;8999;48.994;9.150;2024-03-08T00:51:18;29.43;;;14.83;;
17753;SDS011;8999;48.994;9.150;2024-03-08T00:53:50;23.90;;;13.07;;
17753;SDS011;8999;48.994;9.150;2024-03-08T00:56:21;23.97;;;13.47;;
17753;SDS011;8999;48.994;9.150;2024-03-08T00:58:54;25.73;;;13.27;;
17753;SDS011;8999;48.994;9.150;2024-03-08T01:01:26;24.93;;;14.00;;
17753;SDS011;8999;48.994;9.150;2024-03-08T01:04:01;25.33;;;13.37;;
17753;SDS011;8999;48.994;9.150;2024-03-08T01:06:32;26.87;;;13.90;;
17753;SDS011;8999;48.994;9.150;2024-03-08T01:09:04;27.00;;;13.70;;
17753;SDS011;8999;48.994;9.150;2024-03-08T01:11:37;22.60;;;13.87;;
17753;SDS011;8999;48.994;9.150;2024-03-08T01:14:09;22.10;;;12.77;;
17753;SDS011;8999;48.994;9.150;2024-03-08T01:16:41;23.87;;;14.03;;
17753;SDS011;8999;48.994;9.150;2024-03-08T01:19:14;24.63;;;13.67;;
17753;SDS011;8999;48.994;9.150;2024-03-08T01:21:46;24.90;;;13.53;;
17753;SDS011;8999;48.994;9.150;2024-03-08T01:24:18;26.67;;;13.67;;
17753;SDS011;8999;48.994;9.150;2024-03-08T01:26:49;25.90;;;13.90;;
17753;SDS011;8999;48.994;9.150;2024-03-08T01:29:21;21.73;;;12.27;;
17753;SDS011;8999;48.994;9.150;2024-03-08T01:31:53;25.30;;;13.57;;
17753;SDS011;8999;48.994;9.150;2024-03-08T01:34:26;21.67;;;12.67;;
17753;SDS011;8999;48.994;9.150;2024-03-08T01:36:58;25.17;;;13.20;;
17753;SDS011;8999;48.994;9.150;2024-03-08T01:39:31;28.30;;;14.33;;
17753;SDS011;8999;48.994;9.150;2024-03-08T01:42:02;26.43;;;13.90;;
17753;SDS011;8999;48.994;9.150;2024-03-08T01:44:34;25.03;;;13.30;;
17753;SDS011;8999;48.994;9.150;2024-03-08T01:47:06;24.87;;;13.57;;
17753;SDS011;8999;48.994;9.150;2024-03-08T01:49:39;25.23;;;13.50;;
17753;SDS011;8999;48.994;9.150;2024-03-08T01:52:11;26.27;;;14.17;;
17753;SDS011;8999;48.994;9.150;2024-03-08T01:54:43;24.07;;;13.90;;
17753;SDS011;8999;48.994;9.150;2024-03-08T01:57:14;24.87;;;13.23;;
17753;SDS011;8999;48.994;9.150;2024-03-08T01:59:46;24.23;;;13.53;;
17753;SDS011;8999;48.994;9.150;2024-03-08T02:02:18;23.23;;;12.33;;
17753;SDS011;8999;48.994;9.150;2024-03-08T02:04:52;25.13;;;13.57;;
17753;SDS011;8999;48.994;9.150;2024-03-08T02:07:24;24.43;;;13.37;;
17753;SDS011;8999;48.994;9.150;2024-03-08T02:09:55;26.17;;;13.10;;
17753;SDS011;8999;48.994;9.150;2024-03-08T02:12:27;27.23;;;13.97;;
17753;SDS011;8999;48.994;9.150;2024-03-08T02:14:59;27.20;;;14.03;;
17753;SDS011;8999;48.994;9.150;2024-03-08T02:17:30;23.07;;;12.93;;
17753;SDS011;8999;48.994;9.150;2024-03-08T02:20:04;23.50;;;12.20;;
17753;SDS011;8999;48.994;9.150;2024-03-08T02:22:37;23.00;;;13.03;;
17753;SDS011;8999;48.994;9.150;2024-03-08T02:25:09;24.27;;;12.67;;
17753;SDS011;8999;48.994;9.150;2024-03-08T02:27:41;23.07;;;12.60;;
17753;SDS011;8999;48.994;9.150;2024-03-08T02:30:13;22.03;;;12.60;;
17753;SDS011;8999;48.994;9.150;2024-03-08T02:32:44;22.50;;;12.70;;
17753;SDS011;8999;48.994;9.150;2024-03-08T02:35:16;26.87;;;13.23;;
17753;SDS011;8999;48.994;9.150;2024-03-08T02:37:49;25.80;;;13.07;;
17753;SDS011;8999;48.994;9.150;2024-03-08T02:40:21;23.07;;;13.10;;
17753;SDS011;8999;48.994;9.150;2024-03-08T02:42:52;27.07;;;13.53;;
17753;SDS011;8999;48.994;9.150;2024-03-08T02:45:24;23.47;;;12.63;;
17753;SDS011;8999;48.994;9.150;2024-03-08T02:47:56;23.27;;;12.97;;
17753;SDS011;8999;48.994;9.150;2024-03-08T02:50:27;23.20;;;13.30;;
17753;SDS011;8999;48.994;9.150;2024-03-08T02:53:01;24.47;;;12.97;;
17753;SDS011;8999;48.994;9.150;2024-03-08T02:55:32;24.53;;;13.17;;
17753;SDS011;8999;48.994;9.150;2024-03-08T02:58:05;26.17;;;13.27;;
17753;SDS011;8999;48.994;9.150;2024-03-08T03:00:40;25.97;;;13.63;;
17753;SDS011;8999;48.994;9.150;2024-03-08T03:03:11;24.70;;;14.33;;
17753;SDS011;8999;48.994;9.150;2024-03-08T03:05:43;26.17;;;12.37;;
17753;SDS011;8999;48.994;9.150;2024-03-08T03:08:16;22.50;;;12.40;;
17753;SDS011;8999;48.994;9.150;2024-03-08T03:10:49;24.40;;;12.60;;
17753;SDS011;8999;48.994;9.150;2024-03-08T03:13:21;25.43;;;14.70;;
17753;SDS011;8999;48.994;9.150;2024-03-08T03:15:53;22.50;;;12.37;;
17753;SDS011;8999;48.994;9.150;2024-03-08T03:18:25;25.07;;;13.13;;
17753;SDS011;8999;48.994;9.150;2024-03-08T03:20:57;26.53;;;13.07;;
17753;SDS011;8999;48.994;9.150;2024-03-08T03:23:30;26.63;;;12.63;;
17753;SDS011;8999;48.994;9.150;2024-03-08T03:26:03;26.40;;;13.60;;
17753;SDS011;8999;48.994;9.150;2024-03-08T03:28:37;27.57;;;14.73;;
17753;SDS011;8999;48.994;9.150;2024-03-08T03:31:09;23.30;;;13.47;;
17753;SDS011;8999;48.994;9.150;2024-03-08T03:33:44;23.93;;;12.63;;
17753;SDS011;8999;48.994;9.150;2024-03-08T03:36:17;25.80;;;13.87;;
17753;SDS011;8999;48.994;9.150;2024-03-08T03:38:50;26.23;;;13.90;;
17753;SDS011;8999;48.994;9.150;2024-03-08T03:41:34;28.27;;;13.57;;
17753;SDS011;8999;48.994;9.150;2024-03-08T03:44:06;27.40;;;13.60;;
17753;SDS011;8999;48.994;9.150;2024-03-08T03:46:37;26.13;;;14.47;;
17753;SDS011;8999;48.994;9.150;2024-03-08T03:49:14;24.47;;;13.47;;
17753;SDS011;8999;48.994;9.150;2024-03-08T03:51:46;25.50;;;12.80;;
17753;SDS011;8999;48.994;9.150;2024-03-08T03:54:19;26.30;;;13.27;;
17753;SDS011;8999;48.994;9.150;2024-03-08T03:56:50;26.43;;;13.10;;
17753;SDS011;8999;48.994;9.150;2024-03-08T03:59:23;28.77;;;14.60;;
17753;SDS011;8999;48.994;9.150;2024-03-08T04:01:55;25.83;;;14.23;;
17753;SDS011;8999;48.994;9.150;2024-03-08T04:04:26;31.33;;;16.33;;
17753;SDS011;8999;48.994;9.150;2024-03-08T04:06:59;28.47;;;14.50;;
17753;SDS011;8999;48.994;9.150;2024-03-08T04:09:36;31.10;;;15.57;;
17753;SDS011;8999;48.994;9.150;2024-03-08T04:12:07;27.43;;;13.73;;
17753;SDS011;8999;48.994;9.150;2024-03-08T04:14:41;28.10;;;13.90;;
17753;SDS011;8999;48.994;9.150;2024-03-08T04:17:13;26.17;;;13.50;;
17753;SDS011;8999;48.994;9.150;2024-03-08T04:19:44;25.70;;;14.27;;
17753;SDS011;8999;48.994;9.150;2024-03-08T04:22:18;25.17;;;13.83;;
17753;SDS011;8999;48.994;9.150;2024-03-08T04:24:51;26.63;;;14.20;;
17753;SDS011;8999;48.994;9.150;2024-03-08T04:27:23;24.03;;;12.83;;
17753;SDS011;8999;48.994;9.150;2024-03-08T04:29:55;24.80;;;13.47;;
17753;SDS011;8999;48.994;9.150;2024-03-08T04:32:27;33.10;;;16.67;;
17753;SDS011;8999;48.994;9.150;2024-03-08T04:34:59;28.33;;;13.90;;
17753;SDS011;8999;48.994;9.150;2024-03-08T04:37:31;22.93;;;13.23;;
17753;SDS011;8999;48.994;9.150;2024-03-08T04:40:04;25.73;;;13.30;;
17753;SDS011;8999;48.994;9.150;2024-03-08T04:42:37;26.20;;;13.70;;
17753;SDS011;8999;48.994;9.150;2024-03-08T04:45:10;26.73;;;13.47;;
17753;SDS011;8999;48.994;9.150;2024-03-08T04:47:42;25.93;;;13.67;;
17753;SDS011;8999;48.994;9.150;2024-03-08T04:50:13;22.63;;;12.73;;
17753;SDS011;8999;48.994;9.150;2024-03-08T04:52:45;25.53;;;14.23;;
17753;SDS011;8999;48.994;9.150;2024-03-08T04:55:19;27.83;;;14.03;;
17753;SDS011;8999;48.994;9.150;2024-03-08T04:57:51;24.63;;;13.03;;
17753;SDS011;8999;48.994;9.150;2024-03-08T05:00:23;23.63;;;13.60;;
17753;SDS011;8999;48.994;9.150;2024-03-08T05:02:55;26.73;;;13.67;;
17753;SDS011;8999;48.994;9.150;2024-03-08T05:05:29;26.97;;;13.63;;
17753;SDS011;8999;48.994;9.150;2024-03-08T05:08:01;26.17;;;14.40;;
17753;SDS011;8999;48.994;9.150;2024-03-08T05:10:37;27.50;;;14.23;;
17753;SDS011;8999;48.994;9.150;2024-03-08T05:13:09;27.90;;;14.10;;
17753;SDS011;8999;48.994;9.150;2024-03-08T05:15:40;25.47;;;13.70;;
17753;SDS011;8999;48.994;9.150;2024-03-08T05:18:12;25.30;;;13.73;;
17753;SDS011;8999;48.994;9.150;2024-03-08T05:20:44;35.80;;;17.60;;
17753;SDS011;8999;48.994;9.150;2024-03-08T05:23:16;29.53;;;14.63;;
17753;SDS011;8999;48.994;9.150;2024-03-08T05:25:51;27.77;;;14.13;;
17753;SDS011;8999;48.994;9.150;2024-03-08T05:28:22;27.17;;;14.23;;
17753;SDS011;8999;48.994;9.150;2024-03-08T05:30:54;24.53;;;14.03;;
17753;SDS011;8999;48.994;9.150;2024-03-08T05:33:26;24.43;;;13.87;;
17753;SDS011;8999;48.994;9.150;2024-03-08T05:35:58;29.47;;;14.47;;
17753;SDS011;8999;48.994;9.150;2024-03-08T05:38:30;26.27;;;14.27;;
17753;SDS011;8999;48.994;9.150;2024-03-08T05:41:03;26.00;;;13.90;;
17753;SDS011;8999;48.994;9.150;2024-03-08T05:43:36;28.73;;;14.97;;
17753;SDS011;8999;48.994;9.150;2024-03-08T05:46:07;23.23;;;13.20;;
17753;SDS011;8999;48.994;9.150;2024-03-08T05:48:40;25.13;;;14.10;;
17753;SDS011;8999;48.994;9.150;2024-03-08T05:51:12;25.60;;;13.43;;
17753;SDS011;8999;48.994;9.150;2024-03-08T05:53:43;25.27;;;13.13;;
17753;SDS011;8999;48.994;9.150;2024-03-08T05:56:16;27.77;;;13.73;;
17753;SDS011;8999;48.994;9.150;2024-03-08T05:58:48;29.47;;;15.50;;
17753;SDS011;8999;48.994;9.150;2024-03-08T06:01:20;25.40;;;14.30;;
17753;SDS011;8999;48.994;9.150;2024-03-08T06:03:52;26.23;;;14.17;;
17753;SDS011;8999;48.994;9.150;2024-03-08T06:06:25;30.23;;;14.97;;
17753;SDS011;8999;48.994;9.150;2024-03-08T06:08:57;30.50;;;15.43;;
17753;SDS011;8999;48.994;9.150;2024-03-08T06:11:30;28.87;;;14.50;;
17753;SDS011;8999;48.994;9.150;2024-03-08T06:14:02;30.33;;;15.23;;
17753;SDS011;8999;48.994;9.150;2024-03-08T06:16:34;24.57;;;14.53;;
17753;SDS011;8999;48.994;9.150;2024-03-08T06:19:06;29.23;;;15.23;;
17753;SDS011;8999;48.994;9.150;2024-03-08T06:21:38;27.10;;;14.50;;
17753;SDS011;8999;48.994;9.150;2024-03-08T06:24:09;29.63;;;15.10;;
17753;SDS011;8999;48.994;9.150;2024-03-08T06:26:42;30.87;;;14.90;;
17753;SDS011;8999;48.994;9.150;2024-03-08T06:29:14;25.57;;;14.57;;
17753;SDS011;8999;48.994;9.150;2024-03-08T06:31:46;25.50;;;14.23;;
17753;SDS011;8999;48.994;9.150;2024-03-08T06:34:19;30.37;;;15.07;;
17753;SDS011;8999;48.994;9.150;2024-03-08T06:36:51;27.53;;;14.87;;
17753;SDS011;8999;48.994;9.150;2024-03-08T06:39:25;29.13;;;15.20;;
17753;SDS011;8999;48.994;9.150;2024-03-08T06:42:00;28.93;;;15.03;;
17753;SDS011;8999;48.994;9.150;2024-03-08T06:44:32;29.83;;;16.03;;
17753;SDS011;8999;48.994;9.150;2024-03-08T06:47:04;30.53;;;16.10;;
17753;SDS011;8999;48.994;9.150;2024-03-08T06:49:36;27.03;;;15.10;;
17753;SDS011;8999;48.994;9.150;2024-03-08T06:52:08;26.47;;;13.63;;
17753;SDS011;8999;48.994;9.150;2024-03-08T06:54:40;29.50;;;14.80;;
17753;SDS011;8999;48.994;9.150;2024-03-08T06:57:13;28.97;;;15.07;;
17753;SDS011;8999;48.994;9.150;2024-03-08T06:59:46;28.80;;;15.23;;
17753;SDS011;8999;48.994;9.150;2024-03-08T07:02:18;26.57;;;14.90;;
17753;SDS011;8999;48.994;9.150;2024-03-08T07:04:54;27.50;;;15.57;;
17753;SDS011;8999;48.994;9.150;2024-03-08T07:07:26;27.10;;;14.10;;
17753;SDS011;8999;48.994;9.150;2024-03-08T07:10:00;26.47;;;15.13;;
17753;SDS011;8999;48.994;9.150;2024-03-08T07:12:33;28.63;;;14.40;;
17753;SDS011;8999;48.994;9.150;2024-03-08T07:15:05;36.70;;;15.17;;
17753;SDS011;8999;48.994;9.150;2024-03-08T07:17:37;30.70;;;14.93;;
17753;SDS011;8999;48.994;9.150;2024-03-08T07:20:10;27.70;;;14.93;;
17753;SDS011;8999;48.994;9.150;2024-03-08T07:22:48;28.53;;;14.23;;
17753;SDS011;8999;48.994;9.150;2024-03-08T07:25:29;25.80;;;14.77;;
17753;SDS011;8999;48.994;9.150;2024-03-08T07:28:14;29.67;;;15.37;;
17753;SDS011;8999;48.994;9.150;2024-03-08T07:30:45;27.47;;;15.20;;
17753;SDS011;8999;48.994;9.150;2024-03-08T07:33:31;28.40;;;15.07;;
17753;SDS011;8999;48.994;9.150;2024-03-08T07:36:04;26.30;;;14.07;;
17753;SDS011;8999;48.994;9.150;2024-03-08T07:38:36;24.50;;;14.13;;
17753;SDS011;8999;48.994;9.150;2024-03-08T07:41:07;28.30;;;14.68;;
17753;SDS011;8999;48.994;9.150;2024-03-08T07:43:41;23.47;;;14.53;;
17753;SDS011;8999;48.994;9.150;2024-03-08T07:46:12;27.37;;;14.03;;
17753;SDS011;8999;48.994;9.150;2024-03-08T07:48:44;33.53;;;15.23;;
17753;SDS011;8999;48.994;9.150;2024-03-08T07:51:16;28.27;;;14.40;;
17753;SDS011;8999;48.994;9.150;2024-03-08T07:53:49;26.25;;;13.90;;
17753;SDS011;8999;48.994;9.150;2024-03-08T07:56:21;27.63;;;14.23;;
17753;SDS011;8999;48.994;9.150;2024-03-08T07:58:59;25.97;;;14.70;;
17753;SDS011;8999;48.994;9.150;2024-03-08T08:01:34;28.73;;;15.40;;
17753;SDS011;8999;48.994;9.150;2024-03-08T08:04:05;24.58;;;13.52;;
17753;SDS011;8999;48.994;9.150;2024-03-08T08:06:42;26.83;;;14.18;;
17753;SDS011;8999;48.994;9.150;2024-03-08T08:09:14;28.17;;;14.30;;
17753;SDS011;8999;48.994;9.150;2024-03-08T08:11:45;27.08;;;14.70;;
17753;SDS011;8999;48.994;9.150;2024-03-08T08:14:19;28.85;;;13.85;;
17753;SDS011;8999;48.994;9.150;2024-03-08T08:16:51;24.73;;;13.90;;
17753;SDS011;8999;48.994;9.150;2024-03-08T08:19:23;23.80;;;13.73;;
17753;SDS011;8999;48.994;9.150;2024-03-08T08:21:57;24.90;;;14.02;;
17753;SDS011;8999;48.994;9.150;2024-03-08T08:24:29;27.52;;;14.45;;
17753;SDS011;8999;48.994;9.150;2024-03-08T08:27:01;26.17;;;14.27;;
17753;SDS011;8999;48.994;9.150;2024-03-08T08:29:34;22.92;;;13.50;;
17753;SDS011;8999;48.994;9.150;2024-03-08T08:32:06;24.58;;;13.55;;
17753;SDS011;8999;48.994;9.150;2024-03-08T08:34:38;24.80;;;15.10;;
17753;SDS011;8999;48.994;9.150;2024-03-08T08:37:12;23.25;;;13.10;;
17753;SDS011;8999;48.994;9.150;2024-03-08T08:39:44;24.60;;;14.00;;
17753;SDS011;8999;48.994;9.150;2024-03-08T08:42:16;24.95;;;13.88;;
17753;SDS011;8999;48.994;9.150;2024-03-08T08:44:49;25.25;;;14.52;;
17753;SDS011;8999;48.994;9.150;2024-03-08T08:47:22;26.10;;;14.48;;
17753;SDS011;8999;48.994;9.150;2024-03-08T08:49:54;23.73;;;13.45;;
17753;SDS011;8999;48.994;9.150;2024-03-08T08:52:25;23.52;;;13.57;;
17753;SDS011;8999;48.994;9.150;2024-03-08T08:54:59;23.48;;;13.15;;
17753;SDS011;8999;48.994;9.150;2024-03-08T08:57:33;22.80;;;12.25;;
17753;SDS011;8999;48.994;9.150;2024-03-08T09:00:07;21.38;;;13.27;;
17753;SDS011;8999;48.994;9.150;2024-03-08T09:02:44;24.15;;;13.57;;
17753;SDS011;8999;48.994;9.150;2024-03-08T09:05:17;23.88;;;12.38;;
17753;SDS011;8999;48.994;9.150;2024-03-08T09:07:48;22.55;;;13.27;;
17753;SDS011;8999;48.994;9.150;2024-03-08T09:10:20;26.70;;;13.55;;
17753;SDS011;8999;48.994;9.150;2024-03-08T09:12:53;23.13;;;12.07;;
17753;SDS011;8999;48.994;9.150;2024-03-08T09:15:27;23.38;;;10.93;;
17753;SDS011;8999;48.994;9.150;2024-03-08T09:17:59;20.65;;;11.75;;
17753;SDS011;8999;48.994;9.150;2024-03-08T09:20:31;24.23;;;12.15;;
17753;SDS011;8999;48.994;9.150;2024-03-08T09:23:03;19.65;;;12.10;;
17753;SDS011;8999;48.994;9.150;2024-03-08T09:25:35;23.17;;;12.48;;
17753;SDS011;8999;48.994;9.150;2024-03-08T09:28:07;24.42;;;12.75;;
17753;SDS011;8999;48.994;9.150;2024-03-08T09:30:40;21.92;;;12.50;;
17753;SDS011;8999;48.994;9.150;2024-03-08T09:33:13;22.75;;;12.38;;
17753;SDS011;8999;48.994;9.150;2024-03-08T09:35:49;21.63;;;12.20;;
17753;SDS011;8999;48.994;9.150;2024-03-08T09:38:21;24.00;;;12.63;;
17753;SDS011;8999;48.994;9.150;2024-03-08T09:40:53;22.48;;;12.25;;
17753;SDS011;8999;48.994;9.150;2024-03-08T09:43:27;22.30;;;12.73;;
17753;SDS011;8999;48.994;9.150;2024-03-08T09:46:00;21.40;;;12.40;;
17753;SDS011;8999;48.994;9.150;2024-03-08T09:48:32;21.17;;;11.98;;
17753;SDS011;8999;48.994;9.150;2024-03-08T09:51:04;23.50;;;13.02;;
17753;SDS011;8999;48.994;9.150;2024-03-08T09:53:37;22.60;;;12.38;;
17753;SDS011;8999;48.994;9.150;2024-03-08T09:56:09;20.55;;;11.98;;
17753;SDS011;8999;48.994;9.150;2024-03-08T09:58:41;22.00;;;12.60;;
17753;SDS011;8999;48.994;9.150;2024-03-08T10:01:46;23.65;;;12.07;;
17753;SDS011;8999;48.994;9.150;2024-03-08T10:04:18;21.90;;;12.00;;
17753;SDS011;8999;48.994;9.150;2024-03-08T10:06:50;23.08;;;12.65;;
17753;SDS011;8999;48.994;9.150;2024-03-08T10:09:22;21.95;;;11.68;;
17753;SDS011;8999;48.994;9.150;2024-03-08T10:11:55;21.73;;;12.45;;
17753;SDS011;8999;48.994;9.150;2024-03-08T10:14:28;22.40;;;11.63;;
17753;SDS011;8999;48.994;9.150;2024-03-08T10:17:01;22.90;;;13.10;;
17753;SDS011;8999;48.994;9.150;2024-03-08T10:19:33;21.27;;;12.00;;
17753;SDS011;8999;48.994;9.150;2024-03-08T10:22:05;21.60;;;11.73;;
17753;SDS011;8999;48.994;9.150;2024-03-08T10:24:37;23.00;;;11.43;;
17753;SDS011;8999;48.994;9.150;2024-03-08T10:27:10;21.52;;;11.82;;
17753;SDS011;8999;48.994;9.150;2024-03-08T10:29:41;22.67;;;10.77;;
17753;SDS011;8999;48.994;9.150;2024-03-08T10:32:16;22.15;;;12.20;;
17753;SDS011;8999;48.994;9.150;2024-03-08T10:34:48;21.48;;;12.07;;
17753;SDS011;8999;48.994;9.150;2024-03-08T10:37:21;24.88;;;13.18;;
17753;SDS011;8999;48.994;9.150;2024-03-08T10:40:02;21.92;;;12.30;;
17753;SDS011;8999;48.994;9.150;2024-03-08T10:42:41;20.70;;;11.00;;
17753;SDS011;8999;48.994;9.150;2024-03-08T10:45:31;22.52;;;12.88;;
17753;SDS011;8999;48.994;9.150;2024-03-08T10:48:14;23.45;;;13.10;;
17753;SDS011;8999;48.994;9.150;2024-03-08T10:50:52;20.25;;;11.50;;
17753;SDS011;8999;48.994;9.150;2024-03-08T10:53:26;19.95;;;11.40;;
17753;SDS011;8999;48.994;9.150;2024-03-08T10:55:59;21.25;;;11.85;;
17753;SDS011;8999;48.994;9.150;2024-03-08T10:58:32;19.00;;;11.55;;
17753;SDS011;8999;48.994;9.150;2024-03-08T11:01:05;22.77;;;11.75;;
17753;SDS011;8999;48.994;9.150;2024-03-08T11:03:45;19.90;;;11.27;;
17753;SDS011;8999;48.994;9.150;2024-03-08T11:06:23;20.95;;;12.13;;
17753;SDS011;8999;48.994;9.150;2024-03-08T11:09:02;20.02;;;11.63;;
17753;SDS011;8999;48.994;9.150;2024-03-08T11:11:34;22.27;;;12.50;;
17753;SDS011;8999;48.994;9.150;2024-03-08T11:14:05;19.40;;;11.98;;
17753;SDS011;8999;48.994;9.150;2024-03-08T11:16:37;24.02;;;12.77;;
17753;SDS011;8999;48.994;9.150;2024-03-08T11:19:25;20.48;;;11.98;;
17753;SDS011;8999;48.994;9.150;2024-03-08T11:22:02;20.83;;;11.57;;
17753;SDS011;8999;48.994;9.150;2024-03-08T11:24:37;21.52;;;11.95;;
17753;SDS011;8999;48.994;9.150;2024-03-08T11:27:11;19.70;;;12.10;;
17753;SDS011;8999;48.994;9.150;2024-03-08T11:29:44;20.30;;;11.88;;
17753;SDS011;8999;48.994;9.150;2024-03-08T11:32:15;22.05;;;12.52;;
17753;SDS011;8999;48.994;9.150;2024-03-08T11:34:49;21.10;;;12.13;;
17753;SDS011;8999;48.994;9.150;2024-03-08T11:37:21;25.77;;;13.10;;
17753;SDS011;8999;48.994;9.150;2024-03-08T11:39:53;20.80;;;12.55;;
17753;SDS011;8999;48.994;9.150;2024-03-08T11:42:28;21.10;;;12.43;;
17753;SDS011;8999;48.994;9.150;2024-03-08T11:45:00;21.15;;;11.98;;
17753;SDS011;8999;48.994;9.150;2024-03-08T11:47:34;20.48;;;11.98;;
17753;SDS011;8999;48.994;9.150;2024-03-08T11:50:11;23.40;;;12.82;;
17753;SDS011;8999;48.994;9.150;2024-03-08T11:52:44;26.25;;;13.10;;
17753;SDS011;8999;48.994;9.150;2024-03-08T11:55:16;22.70;;;12.20;;
17753;SDS011;8999;48.994;9.150;2024-03-08T11:57:49;23.35;;;12.57;;
17753;SDS011;8999;48.994;9.150;2024-03-08T12:00:21;22.40;;;12.68;;
17753;SDS011;8999;48.994;9.150;2024-03-08T12:03:02;22.00;;;11.90;;
17753;SDS011;8999;48.994;9.150;2024-03-08T12:05:35;22.75;;;12.68;;
17753;SDS011;8999;48.994;9.150;2024-03-08T12:08:08;21.80;;;12.45;;
17753;SDS011;8999;48.994;9.150;2024-03-08T12:10:43;21.95;;;13.10;;
17753;SDS011;8999;48.994;9.150;2024-03-08T12:13:14;25.15;;;12.60;;
17753;SDS011;8999;48.994;9.150;2024-03-08T12:15:48;23.33;;;13.27;;
17753;SDS011;8999;48.994;9.150;2024-03-08T12:18:19;22.98;;;12.93;;
17753;SDS011;8999;48.994;9.150;2024-03-08T12:20:54;20.20;;;12.23;;
17753;SDS011;8999;48.994;9.150;2024-03-08T12:23:38;33.92;;;13.35;;
17753;SDS011;8999;48.994;9.150;2024-03-08T12:26:10;23.88;;;13.50;;
17753;SDS011;8999;48.994;9.150;2024-03-08T12:28:44;21.63;;;12.73;;
17753;SDS011;8999;48.994;9.150;2024-03-08T12:31:18;24.10;;;13.65;;
17753;SDS011;8999;48.994;9.150;2024-03-08T12:33:51;21.00;;;13.30;;
17753;SDS011;8999;48.994;9.150;2024-03-08T12:36:25;23.98;;;12.95;;
17753;SDS011;8999;48.994;9.150;2024-03-08T12:38:58;23.02;;;12.63;;
17753;SDS011;8999;48.994;9.150;2024-03-08T12:41:31;22.60;;;12.55;;
17753;SDS011;8999;48.994;9.150;2024-03-08T12:44:03;25.73;;;13.52;;
17753;SDS011;8999;48.994;9.150;2024-03-08T12:46:38;25.70;;;13.30;;
17753;SDS011;8999;48.994;9.150;2024-03-08T12:49:11;23.15;;;13.32;;
17753;SDS011;8999;48.994;9.150;2024-03-08T12:51:44;22.27;;;12.48;;
17753;SDS011;8999;48.994;9.150;2024-03-08T12:54:16;22.92;;;12.60;;
17753;SDS011;8999;48.994;9.150;2024-03-08T12:56:48;23.33;;;12.65;;
17753;SDS011;8999;48.994;9.150;2024-03-08T12:59:23;23.08;;;12.35;;
17753;SDS011;8999;48.994;9.150;2024-03-08T13:01:55;23.92;;;12.88;;
17753;SDS011;8999;48.994;9.150;2024-03-08T13:04:30;23.30;;;13.25;;
17753;SDS011;8999;48.994;9.150;2024-03-08T13:07:03;23.95;;;12.57;;
17753;SDS011;8999;48.994;9.150;2024-03-08T13:09:35;21.23;;;12.40;;
17753;SDS011;8999;48.994;9.150;2024-03-08T13:12:07;22.65;;;12.55;;
17753;SDS011;8999;48.994;9.150;2024-03-08T13:14:40;23.98;;;13.23;;
17753;SDS011;8999;48.994;9.150;2024-03-08T13:17:12;25.30;;;13.05;;
17753;SDS011;8999;48.994;9.150;2024-03-08T13:19:44;24.58;;;12.90;;
17753;SDS011;8999;48.994;9.150;2024-03-08T13:22:17;21.42;;;12.20;;
17753;SDS011;8999;48.994;9.150;2024-03-08T13:24:52;21.55;;;11.63;;
17753;SDS011;8999;48.994;9.150;2024-03-08T13:27:24;25.17;;;12.95;;
17753;SDS011;8999;48.994;9.150;2024-03-08T13:29:56;23.27;;;13.10;;
17753;SDS011;8999;48.994;9.150;2024-03-08T13:32:28;25.30;;;12.70;;
17753;SDS011;8999;48.994;9.150;2024-03-08T13:35:01;23.83;;;12.20;;
17753;SDS011;8999;48.994;9.150;2024-03-08T13:37:35;22.10;;;12.10;;
17753;SDS011;8999;48.994;9.150;2024-03-08T13:40:08;22.63;;;13.00;;
17753;SDS011;8999;48.994;9.150;2024-03-08T13:42:43;25.10;;;12.80;;
17753;SDS011;8999;48.994;9.150;2024-03-08T13:45:15;20.30;;;12.02;;
17753;SDS011;8999;48.994;9.150;2024-03-08T13:47:53;19.38;;;11.30;;
17753;SDS011;8999;48.994;9.150;2024-03-08T13:50:25;21.30;;;12.70;;
17753;SDS011;8999;48.994;9.150;2024-03-08T13:52:58;22.40;;;13.18;;
17753;SDS011;8999;48.994;9.150;2024-03-08T13:55:30;20.80;;;12.70;;
17753;SDS011;8999;48.994;9.150;2024-03-08T13:58:03;25.33;;;13.38;;
17753;SDS011;8999;48.994;9.150;2024-03-08T14:00:39;22.58;;;12.50;;
17753;SDS011;8999;48.994;9.150;2024-03-08T14:03:13;24.13;;;12.27;;
17753;SDS011;8999;48.994;9.150;2024-03-08T14:05:45;22.20;;;12.55;;
17753;SDS011;8999;48.994;9.150;2024-03-08T14:08:18;20.15;;;11.52;;
17753;SDS011;8999;48.994;9.150;2024-03-08T14:10:50;22.55;;;12.43;;
17753;SDS011;8999;48.994;9.150;2024-03-08T14:13:23;21.50;;;12.38;;
17753;SDS011;8999;48.994;9.150;2024-03-08T14:15:55;21.83;;;12.25;;
17753;SDS011;8999;48.994;9.150;2024-03-08T14:18:27;19.27;;;11.07;;
17753;SDS011;8999;48.994;9.150;2024-03-08T14:20:59;21.65;;;11.40;;
17753;SDS011;8999;48.994;9.150;2024-03-08T14:23:32;23.45;;;12.20;;
17753;SDS011;8999;48.994;9.150;2024-03-08T14:26:04;21.15;;;12.55;;
17753;SDS011;8999;48.994;9.150;2024-03-08T14:28:37;21.95;;;12.50;;
17753;SDS011;8999;48.994;9.150;2024-03-08T14:31:09;23.83;;;12.90;;
17753;SDS011;8999;48.994;9.150;2024-03-08T14:33:42;25.33;;;12.70;;
17753;SDS011;8999;48.994;9.150;2024-03-08T14:36:19;20.95;;;12.00;;
17753;SDS011;8999;48.994;9.150;2024-03-08T14:38:52;23.10;;;11.15;;
17753;SDS011;8999;48.994;9.150;2024-03-08T14:41:23;22.67;;;11.93;;
17753;SDS011;8999;48.994;9.150;2024-03-08T14:43:56;21.60;;;12.00;;
17753;SDS011;8999;48.994;9.150;2024-03-08T14:46:29;20.23;;;11.60;;
17753;SDS011;8999;48.994;9.150;2024-03-08T14:49:01;24.25;;;12.20;;
17753;SDS011;8999;48.994;9.150;2024-03-08T14:51:32;18.42;;;10.98;;
17753;SDS011;8999;48.994;9.150;2024-03-08T14:54:06;20.33;;;11.82;;
17753;SDS011;8999;48.994;9.150;2024-03-08T14:56:40;19.52;;;12.43;;
17753;SDS011;8999;48.994;9.150;2024-03-08T14:59:13;22.85;;;11.48;;
17753;SDS011;8999;48.994;9.150;2024-03-08T15:01:45;22.48;;;11.55;;
17753;SDS011;8999;48.994;9.150;2024-03-08T15:04:17;21.80;;;12.40;;
17753;SDS011;8999;48.994;9.150;2024-03-08T15:06:49;18.80;;;11.88;;